sensor_id;sensor_type;location;lat;lon;timestamp;P1;durP1;ratioP1;P2;durP2;ratioP2
9007;SDS011;62813;51.424;6.762;2024-02-04T00:00:54;8.63;;;7.53;;
9007;SDS011;62813;51.424;6.762;2024-02-04T00:03:21;7.47;;;6.40;;
9007;SDS011;62813;51.424;6.762;2024-02-04T00:05:50;6.30;;;5.50;;
9007;SDS011;62813;51.424;6.762;2024-02-04T00:08:17;6.10;;;4.80;;
9007;SDS011;62813;51.424;6.762;2024-02-04T00:10:43;6.00;;;4.90;;
9007;SDS011;62813;51.424;6.762;2024-02-04T00:13:10;5.17;;;4.70;;
9007;SDS011;62813;51.424;6.762;2024-02-04T00:15:37;6.17;;;4.77;;
9007;SDS011;62813;51.424;6.762;2024-02-04T00:18:04;7.00;;;4.60;;
9007;SDS011;62813;51.424;6.762;2024-02-04T00:20:31;4.27;;;3.87;;
9007;SDS011;62813;51.424;6.762;2024-02-04T00:22:59;4.17;;;3.23;;
9007;SDS011;62813;51.424;6.762;2024-02-04T00:25:26;3.97;;;3.17;;
9007;SDS011;62813;51.424;6.762;2024-02-04T00:27:53;3.67;;;3.00;;
9007;SDS011;62813;51.424;6.762;2024-02-04T00:30:19;3.83;;;3.53;;
9007;SDS011;62813;51.424;6.762;2024-02-04T00:32:46;4.27;;;3.63;;
9007;SDS011;62813;51.424;6.762;2024-02-04T00:35:14;3.53;;;3.23;;
9007;SDS011;62813;51.424;6.762;2024-02-04T00:37:40;6.63;;;4.20;;
9007;SDS011;62813;51.424;6.762;2024-02-04T00:40:07;4.33;;;3.80;;
9007;SDS011;62813;51.424;6.762;2024-02-04T00:42:35;5.47;;;4.50;;
9007;SDS011;62813;51.424;6.762;2024-02-04T00:45:01;5.87;;;5.33;;
9007;SDS011;62813;51.424;6.762;2024-02-04T00:47:28;6.60;;;5.47;;
9007;SDS011;62813;51.424;6.762;2024-02-04T00:49:55;5.90;;;5.40;;
9007;SDS011;62813;51.424;6.762;2024-02-04T00:52:22;5.43;;;4.93;;
9007;SDS011;62813;51.424;6.762;2024-02-04T00:54:48;4.67;;;4.20;;
9007;SDS011;62813;51.424;6.762;2024-02-04T00:57:15;5.10;;;4.60;;
9007;SDS011;62813;51.424;6.762;2024-02-04T00:59:42;5.17;;;4.67;;
9007;SDS011;62813;51.424;6.762;2024-02-04T01:02:09;5.50;;;5.00;;
9007;SDS011;62813;51.424;6.762;2024-02-04T01:04:36;5.20;;;4.70;;
9007;SDS011;62813;51.424;6.762;2024-02-04T01:07:02;7.10;;;6.00;;
9007;SDS011;62813;51.424;6.762;2024-02-04T01:09:29;5.97;;;5.20;;
9007;SDS011;62813;51.424;6.762;2024-02-04T01:11:56;5.97;;;4.93;;
9007;SDS011;62813;51.424;6.762;2024-02-04T01:14:23;5.93;;;5.33;;
9007;SDS011;62813;51.424;6.762;2024-02-04T01:16:50;5.53;;;4.87;;
9007;SDS011;62813;51.424;6.762;2024-02-04T01:19:17;5.50;;;5.00;;
9007;SDS011;62813;51.424;6.762;2024-02-04T01:21:44;6.53;;;5.87;;
9007;SDS011;62813;51.424;6.762;2024-02-04T01:24:11;5.70;;;5.17;;
9007;SDS011;62813;51.424;6.762;2024-02-04T01:26:38;6.30;;;5.70;;
9007;SDS011;62813;51.424;6.762;2024-02-04T01:29:05;6.77;;;6.17;;
9007;SDS011;62813;51.424;6.762;2024-02-04T01:31:31;7.23;;;6.53;;
9007;SDS011;62813;51.424;6.762;2024-02-04T01:33:59;7.37;;;6.67;;
9007;SDS011;62813;51.424;6.762;2024-02-04T01:36:26;6.80;;;5.93;;
9007;SDS011;62813;51.424;6.762;2024-02-04T01:38:52;6.73;;;6.13;;
9007;SDS011;62813;51.424;6.762;2024-02-04T01:41:19;6.73;;;6.13;;
9007;SDS011;62813;51.424;6.762;2024-02-04T01:43:46;6.30;;;5.80;;
9007;SDS011;62813;51.424;6.762;2024-02-04T01:46:12;7.00;;;6.13;;
9007;SDS011;62813;51.424;6.762;2024-02-04T01:48:40;7.33;;;6.30;;
9007;SDS011;62813;51.424;6.762;2024-02-04T01:51:07;9.37;;;7.30;;
9007;SDS011;62813;51.424;6.762;2024-02-04T01:53:34;7.40;;;6.70;;
9007;SDS011;62813;51.424;6.762;2024-02-04T01:56:02;7.37;;;6.67;;
9007;SDS011;62813;51.424;6.762;2024-02-04T01:58:31;7.07;;;6.37;;
9007;SDS011;62813;51.424;6.762;2024-02-04T02:00:59;7.30;;;6.60;;
9007;SDS011;62813;51.424;6.762;2024-02-04T02:03:26;7.03;;;6.33;;
9007;SDS011;62813;51.424;6.762;2024-02-04T02:05:53;6.73;;;6.13;;
9007;SDS011;62813;51.424;6.762;2024-02-04T02:08:21;8.23;;;6.47;;
9007;SDS011;62813;51.424;6.762;2024-02-04T02:10:47;7.37;;;6.50;;
9007;SDS011;62813;51.424;6.762;2024-02-04T02:13:16;7.03;;;6.30;;
9007;SDS011;62813;51.424;6.762;2024-02-04T02:15:54;7.23;;;6.53;;
9007;SDS011;62813;51.424;6.762;2024-02-04T02:18:31;7.80;;;7.10;;
9007;SDS011;62813;51.424;6.762;2024-02-04T02:26:52;6.87;;;6.27;;
9007;SDS011;62813;51.424;6.762;2024-02-04T02:29:20;6.70;;;6.10;;
9007;SDS011;62813;51.424;6.762;2024-02-04T02:31:47;7.27;;;6.37;;
9007;SDS011;62813;51.424;6.762;2024-02-04T02:34:14;8.20;;;7.40;;
9007;SDS011;62813;51.424;6.762;2024-02-04T02:36:50;8.17;;;7.37;;
9007;SDS011;62813;51.424;6.762;2024-02-04T02:39:23;8.67;;;7.77;;
9007;SDS011;62813;51.424;6.762;2024-02-04T02:41:55;8.53;;;7.37;;
9007;SDS011;62813;51.424;6.762;2024-02-04T02:44:25;9.20;;;7.80;;
9007;SDS011;62813;51.424;6.762;2024-02-04T02:46:54;8.63;;;7.73;;
9007;SDS011;62813;51.424;6.762;2024-02-04T02:49:22;9.47;;;8.53;;
9007;SDS011;62813;51.424;6.762;2024-02-04T02:51:49;9.97;;;9.07;;
9007;SDS011;62813;51.424;6.762;2024-02-04T02:54:16;9.43;;;8.57;;
9007;SDS011;62813;51.424;6.762;2024-02-04T02:56:43;9.07;;;8.27;;
9007;SDS011;62813;51.424;6.762;2024-02-04T02:59:10;10.47;;;9.37;;
9007;SDS011;62813;51.424;6.762;2024-02-04T03:01:39;10.33;;;9.20;;
9007;SDS011;62813;51.424;6.762;2024-02-04T03:04:06;11.23;;;9.53;;
9007;SDS011;62813;51.424;6.762;2024-02-04T03:06:33;10.07;;;9.07;;
9007;SDS011;62813;51.424;6.762;2024-02-04T03:09:00;11.27;;;10.17;;
9007;SDS011;62813;51.424;6.762;2024-02-04T03:11:27;11.07;;;9.97;;
9007;SDS011;62813;51.424;6.762;2024-02-04T03:13:54;12.00;;;10.73;;
9007;SDS011;62813;51.424;6.762;2024-02-04T03:16:21;12.13;;;10.93;;
9007;SDS011;62813;51.424;6.762;2024-02-04T03:18:47;12.73;;;10.93;;
9007;SDS011;62813;51.424;6.762;2024-02-04T03:21:15;12.47;;;11.27;;
9007;SDS011;62813;51.424;6.762;2024-02-04T03:23:42;11.60;;;10.50;;
9007;SDS011;62813;51.424;6.762;2024-02-04T03:26:10;13.47;;;11.13;;
9007;SDS011;62813;51.424;6.762;2024-02-04T03:28:37;12.73;;;11.43;;
9007;SDS011;62813;51.424;6.762;2024-02-04T03:31:04;11.90;;;10.80;;
9007;SDS011;62813;51.424;6.762;2024-02-04T03:33:30;12.63;;;10.93;;
9007;SDS011;62813;51.424;6.762;2024-02-04T03:35:57;11.27;;;10.17;;
9007;SDS011;62813;51.424;6.762;2024-02-04T03:38:24;11.50;;;10.40;;
9007;SDS011;62813;51.424;6.762;2024-02-04T03:40:51;11.40;;;10.30;;
9007;SDS011;62813;51.424;6.762;2024-02-04T03:43:18;11.80;;;10.60;;
9007;SDS011;62813;51.424;6.762;2024-02-04T03:45:44;10.53;;;9.53;;
9007;SDS011;62813;51.424;6.762;2024-02-04T03:48:11;11.70;;;9.50;;
9007;SDS011;62813;51.424;6.762;2024-02-04T03:50:38;12.97;;;10.30;;
9007;SDS011;62813;51.424;6.762;2024-02-04T03:53:05;10.80;;;9.70;;
9007;SDS011;62813;51.424;6.762;2024-02-04T03:55:32;10.90;;;9.80;;
9007;SDS011;62813;51.424;6.762;2024-02-04T03:57:59;10.00;;;9.10;;
9007;SDS011;62813;51.424;6.762;2024-02-04T04:00:25;9.90;;;8.90;;
9007;SDS011;62813;51.424;6.762;2024-02-04T04:02:53;9.50;;;8.60;;
9007;SDS011;62813;51.424;6.762;2024-02-04T04:05:19;10.03;;;9.10;;
9007;SDS011;62813;51.424;6.762;2024-02-04T04:07:46;10.13;;;9.20;;
9007;SDS011;62813;51.424;6.762;2024-02-04T04:10:13;10.37;;;9.13;;
9007;SDS011;62813;51.424;6.762;2024-02-04T04:12:40;11.77;;;10.57;;
9007;SDS011;62813;51.424;6.762;2024-02-04T04:15:07;11.40;;;10.20;;
9007;SDS011;62813;51.424;6.762;2024-02-04T04:17:34;12.73;;;11.53;;
9007;SDS011;62813;51.424;6.762;2024-02-04T04:20:01;13.63;;;12.10;;
9007;SDS011;62813;51.424;6.762;2024-02-04T04:22:28;13.73;;;12.30;;
9007;SDS011;62813;51.424;6.762;2024-02-04T04:24:54;13.30;;;11.93;;
9007;SDS011;62813;51.424;6.762;2024-02-04T04:27:22;14.83;;;12.43;;
9007;SDS011;62813;51.424;6.762;2024-02-04T04:29:48;15.33;;;13.73;;
9007;SDS011;62813;51.424;6.762;2024-02-04T04:32:15;15.60;;;14.00;;
9007;SDS011;62813;51.424;6.762;2024-02-04T04:34:42;16.27;;;14.57;;
9007;SDS011;62813;51.424;6.762;2024-02-04T04:37:09;18.13;;;14.83;;
9007;SDS011;62813;51.424;6.762;2024-02-04T04:39:36;19.00;;;14.90;;
9007;SDS011;62813;51.424;6.762;2024-02-04T04:42:03;19.50;;;15.03;;
9007;SDS011;62813;51.424;6.762;2024-02-04T04:44:29;16.93;;;15.17;;
9007;SDS011;62813;51.424;6.762;2024-02-04T04:46:56;16.33;;;14.00;;
9007;SDS011;62813;51.424;6.762;2024-02-04T04:49:23;19.63;;;14.47;;
9007;SDS011;62813;51.424;6.762;2024-02-04T04:51:50;15.60;;;14.00;;
9007;SDS011;62813;51.424;6.762;2024-02-04T04:54:17;16.83;;;13.27;;
9007;SDS011;62813;51.424;6.762;2024-02-04T04:56:43;17.50;;;13.33;;
9007;SDS011;62813;51.424;6.762;2024-02-04T04:59:11;15.73;;;12.37;;
9007;SDS011;62813;51.424;6.762;2024-02-04T05:01:37;22.50;;;15.50;;
9007;SDS011;62813;51.424;6.762;2024-02-04T05:04:12;18.73;;;15.17;;
9007;SDS011;62813;51.424;6.762;2024-02-04T05:06:38;17.67;;;13.60;;
9007;SDS011;62813;51.424;6.762;2024-02-04T05:09:05;16.97;;;14.40;;
9007;SDS011;62813;51.424;6.762;2024-02-04T05:11:32;20.90;;;15.37;;
9007;SDS011;62813;51.424;6.762;2024-02-04T05:13:59;14.23;;;11.30;;
9007;SDS011;62813;51.424;6.762;2024-02-04T05:16:26;14.17;;;11.20;;
9007;SDS011;62813;51.424;6.762;2024-02-04T05:18:53;15.90;;;12.07;;
9007;SDS011;62813;51.424;6.762;2024-02-04T05:21:20;13.33;;;11.37;;
9007;SDS011;62813;51.424;6.762;2024-02-04T05:23:46;18.33;;;12.53;;
9007;SDS011;62813;51.424;6.762;2024-02-04T05:26:13;15.80;;;11.93;;
9007;SDS011;62813;51.424;6.762;2024-02-04T05:28:40;23.43;;;14.37;;
9007;SDS011;62813;51.424;6.762;2024-02-04T05:31:06;25.47;;;19.50;;
9007;SDS011;62813;51.424;6.762;2024-02-04T05:33:33;20.60;;;17.07;;
9007;SDS011;62813;51.424;6.762;2024-02-04T05:36:00;23.90;;;20.47;;
9007;SDS011;62813;51.424;6.762;2024-02-04T05:38:27;44.97;;;37.13;;
9007;SDS011;62813;51.424;6.762;2024-02-04T05:40:54;18.70;;;14.63;;
9007;SDS011;62813;51.424;6.762;2024-02-04T05:43:21;19.43;;;14.70;;
9007;SDS011;62813;51.424;6.762;2024-02-04T05:45:48;20.37;;;14.53;;
9007;SDS011;62813;51.424;6.762;2024-02-04T05:48:15;17.33;;;14.70;;
9007;SDS011;62813;51.424;6.762;2024-02-04T05:50:42;18.33;;;15.27;;
9007;SDS011;62813;51.424;6.762;2024-02-04T05:53:09;19.87;;;15.93;;
9007;SDS011;62813;51.424;6.762;2024-02-04T05:55:39;22.73;;;16.80;;
9007;SDS011;62813;51.424;6.762;2024-02-04T05:58:06;22.00;;;16.93;;
9007;SDS011;62813;51.424;6.762;2024-02-04T06:00:32;22.80;;;17.80;;
9007;SDS011;62813;51.424;6.762;2024-02-04T06:03:00;23.60;;;18.20;;
9007;SDS011;62813;51.424;6.762;2024-02-04T06:05:27;22.93;;;19.00;;
9007;SDS011;62813;51.424;6.762;2024-02-04T06:07:53;23.63;;;19.50;;
9007;SDS011;62813;51.424;6.762;2024-02-04T06:10:20;21.73;;;19.33;;
9007;SDS011;62813;51.424;6.762;2024-02-04T06:12:47;34.77;;;23.73;;
9007;SDS011;62813;51.424;6.762;2024-02-04T06:15:14;31.67;;;23.37;;
9007;SDS011;62813;51.424;6.762;2024-02-04T06:17:42;26.80;;;22.03;;
9007;SDS011;62813;51.424;6.762;2024-02-04T06:20:09;27.23;;;22.63;;
9007;SDS011;62813;51.424;6.762;2024-02-04T06:22:38;25.73;;;21.97;;
9007;SDS011;62813;51.424;6.762;2024-02-04T06:25:05;27.63;;;20.67;;
9007;SDS011;62813;51.424;6.762;2024-02-04T06:27:32;29.10;;;21.63;;
9007;SDS011;62813;51.424;6.762;2024-02-04T06:29:59;29.53;;;24.33;;
9007;SDS011;62813;51.424;6.762;2024-02-04T06:32:26;37.57;;;27.47;;
9007;SDS011;62813;51.424;6.762;2024-02-04T06:34:53;36.23;;;25.90;;
9007;SDS011;62813;51.424;6.762;2024-02-04T06:37:22;35.43;;;25.07;;
9007;SDS011;62813;51.424;6.762;2024-02-04T06:39:49;25.33;;;19.73;;
9007;SDS011;62813;51.424;6.762;2024-02-04T06:42:16;22.73;;;19.10;;
9007;SDS011;62813;51.424;6.762;2024-02-04T06:44:44;26.23;;;19.07;;
9007;SDS011;62813;51.424;6.762;2024-02-04T06:47:11;25.23;;;19.97;;
9007;SDS011;62813;51.424;6.762;2024-02-04T06:49:45;27.50;;;18.93;;
9007;SDS011;62813;51.424;6.762;2024-02-04T06:52:12;24.93;;;19.03;;
9007;SDS011;62813;51.424;6.762;2024-02-04T06:54:40;26.43;;;18.60;;
9007;SDS011;62813;51.424;6.762;2024-02-04T06:57:06;25.83;;;17.77;;
9007;SDS011;62813;51.424;6.762;2024-02-04T06:59:33;19.80;;;17.20;;
9007;SDS011;62813;51.424;6.762;2024-02-04T07:02:00;22.00;;;16.60;;
9007;SDS011;62813;51.424;6.762;2024-02-04T07:04:26;19.53;;;15.90;;
9007;SDS011;62813;51.424;6.762;2024-02-04T07:06:53;22.37;;;15.37;;
9007;SDS011;62813;51.424;6.762;2024-02-04T07:09:20;19.20;;;15.67;;
9007;SDS011;62813;51.424;6.762;2024-02-04T07:11:47;18.33;;;14.40;;
9007;SDS011;62813;51.424;6.762;2024-02-04T07:14:14;20.83;;;14.73;;
9007;SDS011;62813;51.424;6.762;2024-02-04T07:16:41;16.60;;;14.27;;
9007;SDS011;62813;51.424;6.762;2024-02-04T07:19:08;21.83;;;15.60;;
9007;SDS011;62813;51.424;6.762;2024-02-04T07:21:37;26.13;;;19.70;;
9007;SDS011;62813;51.424;6.762;2024-02-04T07:24:03;18.90;;;15.27;;
9007;SDS011;62813;51.424;6.762;2024-02-04T07:26:30;25.80;;;17.80;;
9007;SDS011;62813;51.424;6.762;2024-02-04T07:28:57;18.33;;;14.57;;
9007;SDS011;62813;51.424;6.762;2024-02-04T07:31:24;14.43;;;12.93;;
9007;SDS011;62813;51.424;6.762;2024-02-04T07:33:50;19.67;;;13.83;;
9007;SDS011;62813;51.424;6.762;2024-02-04T07:36:17;18.97;;;14.00;;
9007;SDS011;62813;51.424;6.762;2024-02-04T07:38:44;19.03;;;14.07;;
9007;SDS011;62813;51.424;6.762;2024-02-04T07:41:13;19.83;;;14.43;;
9007;SDS011;62813;51.424;6.762;2024-02-04T07:43:41;17.33;;;13.57;;
9007;SDS011;62813;51.424;6.762;2024-02-04T07:46:08;18.70;;;13.30;;
9007;SDS011;62813;51.424;6.762;2024-02-04T07:48:35;16.97;;;13.00;;
9007;SDS011;62813;51.424;6.762;2024-02-04T07:51:02;15.33;;;12.43;;
9007;SDS011;62813;51.424;6.762;2024-02-04T07:53:29;22.33;;;15.33;;
9007;SDS011;62813;51.424;6.762;2024-02-04T07:55:55;32.00;;;21.90;;
9007;SDS011;62813;51.424;6.762;2024-02-04T07:58:22;15.53;;;13.67;;
9007;SDS011;62813;51.424;6.762;2024-02-04T08:00:48;19.30;;;13.20;;
9007;SDS011;62813;51.424;6.762;2024-02-04T08:03:15;16.03;;;12.83;;
9007;SDS011;62813;51.424;6.762;2024-02-04T08:05:42;19.67;;;12.90;;
9007;SDS011;62813;51.424;6.762;2024-02-04T08:08:08;15.43;;;11.60;;
9007;SDS011;62813;51.424;6.762;2024-02-04T08:10:35;11.63;;;9.60;;
9007;SDS011;62813;51.424;6.762;2024-02-04T08:13:02;14.93;;;11.53;;
9007;SDS011;62813;51.424;6.762;2024-02-04T08:15:30;14.63;;;11.80;;
9007;SDS011;62813;51.424;6.762;2024-02-04T08:17:56;16.83;;;12.67;;
9007;SDS011;62813;51.424;6.762;2024-02-04T08:20:23;14.80;;;11.20;;
9007;SDS011;62813;51.424;6.762;2024-02-04T08:22:51;16.90;;;11.67;;
9007;SDS011;62813;51.424;6.762;2024-02-04T08:25:18;14.73;;;11.67;;
9007;SDS011;62813;51.424;6.762;2024-02-04T08:27:45;13.00;;;10.23;;
9007;SDS011;62813;51.424;6.762;2024-02-04T08:30:12;12.53;;;11.03;;
9007;SDS011;62813;51.424;6.762;2024-02-04T08:32:39;13.33;;;10.80;;
9007;SDS011;62813;51.424;6.762;2024-02-04T08:35:06;12.47;;;11.07;;
9007;SDS011;62813;51.424;6.762;2024-02-04T08:37:33;16.93;;;12.37;;
9007;SDS011;62813;51.424;6.762;2024-02-04T08:40:02;16.57;;;12.73;;
9007;SDS011;62813;51.424;6.762;2024-02-04T08:42:29;17.73;;;11.90;;
9007;SDS011;62813;51.424;6.762;2024-02-04T08:44:56;16.17;;;11.93;;
9007;SDS011;62813;51.424;6.762;2024-02-04T08:47:23;17.93;;;14.20;;
9007;SDS011;62813;51.424;6.762;2024-02-04T08:49:49;12.17;;;10.87;;
9007;SDS011;62813;51.424;6.762;2024-02-04T08:52:16;14.13;;;11.23;;
9007;SDS011;62813;51.424;6.762;2024-02-04T08:54:43;13.30;;;11.10;;
9007;SDS011;62813;51.424;6.762;2024-02-04T08:57:10;13.20;;;10.40;;
9007;SDS011;62813;51.424;6.762;2024-02-04T08:59:37;13.53;;;10.40;;
9007;SDS011;62813;51.424;6.762;2024-02-04T09:02:03;14.13;;;11.87;;
9007;SDS011;62813;51.424;6.762;2024-02-04T09:04:36;32.37;;;22.10;;
9007;SDS011;62813;51.424;6.762;2024-02-04T09:07:07;12.27;;;9.60;;
9007;SDS011;62813;51.424;6.762;2024-02-04T09:09:34;10.73;;;9.50;;
9007;SDS011;62813;51.424;6.762;2024-02-04T09:12:01;11.87;;;9.97;;
9007;SDS011;62813;51.424;6.762;2024-02-04T09:14:28;14.13;;;9.50;;
9007;SDS011;62813;51.424;6.762;2024-02-04T09:16:55;13.03;;;9.90;;
9007;SDS011;62813;51.424;6.762;2024-02-04T09:19:22;13.30;;;9.37;;
9007;SDS011;62813;51.424;6.762;2024-02-04T09:21:51;11.37;;;9.43;;
9007;SDS011;62813;51.424;6.762;2024-02-04T09:24:18;10.57;;;8.70;;
9007;SDS011;62813;51.424;6.762;2024-02-04T09:26:44;9.43;;;8.27;;
9007;SDS011;62813;51.424;6.762;2024-02-04T09:29:11;13.20;;;8.57;;
9007;SDS011;62813;51.424;6.762;2024-02-04T09:31:38;12.97;;;9.10;;
9007;SDS011;62813;51.424;6.762;2024-02-04T09:34:05;10.03;;;8.50;;
9007;SDS011;62813;51.424;6.762;2024-02-04T09:36:32;10.07;;;8.30;;
9007;SDS011;62813;51.424;6.762;2024-02-04T09:38:59;9.60;;;7.90;;
9007;SDS011;62813;51.424;6.762;2024-02-04T09:41:26;8.97;;;7.97;;
9007;SDS011;62813;51.424;6.762;2024-02-04T09:43:54;10.80;;;8.73;;
9007;SDS011;62813;51.424;6.762;2024-02-04T09:46:21;9.83;;;8.30;;
9007;SDS011;62813;51.424;6.762;2024-02-04T09:48:49;10.67;;;8.60;;
9007;SDS011;62813;51.424;6.762;2024-02-04T09:51:17;10.40;;;8.00;;
9007;SDS011;62813;51.424;6.762;2024-02-04T09:53:44;12.87;;;8.90;;
9007;SDS011;62813;51.424;6.762;2024-02-04T09:56:11;15.37;;;9.47;;
9007;SDS011;62813;51.424;6.762;2024-02-04T09:58:40;11.77;;;7.60;;
9007;SDS011;62813;51.424;6.762;2024-02-04T10:01:07;32.17;;;16.40;;
9007;SDS011;62813;51.424;6.762;2024-02-04T10:03:38;12.83;;;9.80;;
9007;SDS011;62813;51.424;6.762;2024-02-04T10:06:05;11.67;;;9.47;;
9007;SDS011;62813;51.424;6.762;2024-02-04T10:08:32;11.97;;;8.07;;
9007;SDS011;62813;51.424;6.762;2024-02-04T10:10:59;12.03;;;8.13;;
9007;SDS011;62813;51.424;6.762;2024-02-04T10:13:26;10.17;;;7.60;;
9007;SDS011;62813;51.424;6.762;2024-02-04T10:15:53;10.30;;;8.00;;
9007;SDS011;62813;51.424;6.762;2024-02-04T10:18:19;10.47;;;7.43;;
9007;SDS011;62813;51.424;6.762;2024-02-04T10:20:47;13.47;;;8.77;;
9007;SDS011;62813;51.424;6.762;2024-02-04T10:23:14;13.77;;;9.17;;
9007;SDS011;62813;51.424;6.762;2024-02-04T10:25:41;9.53;;;8.20;;
9007;SDS011;62813;51.424;6.762;2024-02-04T10:28:08;12.73;;;9.10;;
9007;SDS011;62813;51.424;6.762;2024-02-04T10:30:37;9.23;;;7.50;;
9007;SDS011;62813;51.424;6.762;2024-02-04T10:33:05;10.87;;;8.47;;
9007;SDS011;62813;51.424;6.762;2024-02-04T10:35:32;10.07;;;7.57;;
9007;SDS011;62813;51.424;6.762;2024-02-04T10:37:58;9.10;;;8.13;;
9007;SDS011;62813;51.424;6.762;2024-02-04T10:40:25;9.40;;;7.00;;
9007;SDS011;62813;51.424;6.762;2024-02-04T10:42:52;8.63;;;7.23;;
9007;SDS011;62813;51.424;6.762;2024-02-04T10:45:26;11.93;;;7.27;;
9007;SDS011;62813;51.424;6.762;2024-02-04T10:47:59;10.33;;;8.73;;
9007;SDS011;62813;51.424;6.762;2024-02-04T10:50:27;10.90;;;9.60;;
9007;SDS011;62813;51.424;6.762;2024-02-04T10:52:57;9.93;;;8.10;;
9007;SDS011;62813;51.424;6.762;2024-02-04T10:55:28;7.57;;;6.63;;
9007;SDS011;62813;51.424;6.762;2024-02-04T10:57:57;8.23;;;6.20;;
9007;SDS011;62813;51.424;6.762;2024-02-04T11:00:24;6.87;;;5.33;;
9007;SDS011;62813;51.424;6.762;2024-02-04T11:02:54;6.53;;;5.27;;
9007;SDS011;62813;51.424;6.762;2024-02-04T11:05:22;8.00;;;5.20;;
9007;SDS011;62813;51.424;6.762;2024-02-04T11:07:51;5.97;;;5.00;;
9007;SDS011;62813;51.424;6.762;2024-02-04T11:10:17;6.97;;;5.00;;
9007;SDS011;62813;51.424;6.762;2024-02-04T11:12:46;6.07;;;5.03;;
9007;SDS011;62813;51.424;6.762;2024-02-04T11:15:16;6.73;;;4.77;;
9007;SDS011;62813;51.424;6.762;2024-02-04T11:24:08;5.83;;;4.87;;
9007;SDS011;62813;51.424;6.762;2024-02-04T11:26:48;5.60;;;5.00;;
9007;SDS011;62813;51.424;6.762;2024-02-04T11:29:15;6.00;;;5.13;;
9007;SDS011;62813;51.424;6.762;2024-02-04T11:31:42;6.33;;;5.47;;
9007;SDS011;62813;51.424;6.762;2024-02-04T11:34:10;6.87;;;5.47;;
9007;SDS011;62813;51.424;6.762;2024-02-04T11:36:38;7.20;;;5.63;;
9007;SDS011;62813;51.424;6.762;2024-02-04T11:39:11;5.90;;;4.87;;
9007;SDS011;62813;51.424;6.762;2024-02-04T11:41:48;6.20;;;5.60;;
9007;SDS011;62813;51.424;6.762;2024-02-04T11:44:21;6.40;;;5.80;;
9007;SDS011;62813;51.424;6.762;2024-02-04T11:46:50;8.17;;;6.73;;
9007;SDS011;62813;51.424;6.762;2024-02-04T11:49:17;7.50;;;6.80;;
9007;SDS011;62813;51.424;6.762;2024-02-04T11:51:50;7.43;;;6.70;;
9007;SDS011;62813;51.424;6.762;2024-02-04T11:54:20;7.80;;;7.00;;
9007;SDS011;62813;51.424;6.762;2024-02-04T11:56:51;10.37;;;8.67;;
9007;SDS011;62813;51.424;6.762;2024-02-04T11:59:23;8.43;;;7.00;;
9007;SDS011;62813;51.424;6.762;2024-02-04T12:01:57;11.20;;;7.50;;
9007;SDS011;62813;51.424;6.762;2024-02-04T12:04:27;8.90;;;7.27;;
9007;SDS011;62813;51.424;6.762;2024-02-04T12:06:55;8.30;;;7.43;;
9007;SDS011;62813;51.424;6.762;2024-02-04T12:09:22;7.33;;;6.57;;
9007;SDS011;62813;51.424;6.762;2024-02-04T12:11:49;8.03;;;6.60;;
9007;SDS011;62813;51.424;6.762;2024-02-04T12:14:16;10.13;;;7.43;;
9007;SDS011;62813;51.424;6.762;2024-02-04T12:16:45;11.17;;;5.93;;
9007;SDS011;62813;51.424;6.762;2024-02-04T12:19:12;8.23;;;6.67;;
9007;SDS011;62813;51.424;6.762;2024-02-04T12:21:39;7.47;;;6.70;;
9007;SDS011;62813;51.424;6.762;2024-02-04T12:24:05;8.43;;;6.40;;
9007;SDS011;62813;51.424;6.762;2024-02-04T12:26:33;8.90;;;7.40;;
9007;SDS011;62813;51.424;6.762;2024-02-04T12:29:00;7.27;;;5.93;;
9007;SDS011;62813;51.424;6.762;2024-02-04T12:31:27;7.53;;;6.17;;
9007;SDS011;62813;51.424;6.762;2024-02-04T12:33:56;9.93;;;6.93;;
9007;SDS011;62813;51.424;6.762;2024-02-04T12:36:25;7.43;;;6.27;;
9007;SDS011;62813;51.424;6.762;2024-02-04T12:38:58;9.17;;;6.60;;
9007;SDS011;62813;51.424;6.762;2024-02-04T12:41:27;7.03;;;6.33;;
9007;SDS011;62813;51.424;6.762;2024-02-04T12:43:58;9.63;;;6.10;;
9007;SDS011;62813;51.424;6.762;2024-02-04T12:46:26;10.27;;;6.60;;
9007;SDS011;62813;51.424;6.762;2024-02-04T12:48:54;7.30;;;6.17;;
9007;SDS011;62813;51.424;6.762;2024-02-04T12:51:27;8.03;;;6.17;;
9007;SDS011;62813;51.424;6.762;2024-02-04T12:54:05;9.80;;;6.10;;
9007;SDS011;62813;51.424;6.762;2024-02-04T12:56:39;8.73;;;6.13;;
9007;SDS011;62813;51.424;6.762;2024-02-04T12:59:08;6.13;;;5.53;;
9007;SDS011;62813;51.424;6.762;2024-02-04T13:01:39;7.07;;;5.60;;
9007;SDS011;62813;51.424;6.762;2024-02-04T13:04:06;6.40;;;5.67;;
9007;SDS011;62813;51.424;6.762;2024-02-04T13:06:37;9.00;;;6.17;;
9007;SDS011;62813;51.424;6.762;2024-02-04T13:09:04;6.10;;;5.10;;
9007;SDS011;62813;51.424;6.762;2024-02-04T13:11:33;7.53;;;5.53;;
9007;SDS011;62813;51.424;6.762;2024-02-04T13:13:59;8.13;;;6.10;;
9007;SDS011;62813;51.424;6.762;2024-02-04T13:16:26;7.57;;;5.63;;
9007;SDS011;62813;51.424;6.762;2024-02-04T13:18:53;6.83;;;6.00;;
9007;SDS011;62813;51.424;6.762;2024-02-04T13:21:20;7.67;;;5.90;;
9007;SDS011;62813;51.424;6.762;2024-02-04T13:23:49;7.93;;;5.40;;
9007;SDS011;62813;51.424;6.762;2024-02-04T13:26:16;7.13;;;5.37;;
9007;SDS011;62813;51.424;6.762;2024-02-04T13:28:43;7.13;;;5.37;;
9007;SDS011;62813;51.424;6.762;2024-02-04T13:31:10;8.23;;;7.37;;
9007;SDS011;62813;51.424;6.762;2024-02-04T13:33:38;10.57;;;7.57;;
9007;SDS011;62813;51.424;6.762;2024-02-04T13:36:07;6.70;;;5.40;;
9007;SDS011;62813;51.424;6.762;2024-02-04T13:38:37;6.77;;;5.37;;
9007;SDS011;62813;51.424;6.762;2024-02-04T13:41:06;5.90;;;5.33;;
9007;SDS011;62813;51.424;6.762;2024-02-04T13:43:34;6.67;;;5.73;;
9007;SDS011;62813;51.424;6.762;2024-02-04T13:46:01;6.33;;;5.73;;
9007;SDS011;62813;51.424;6.762;2024-02-04T13:48:28;6.53;;;5.83;;
9007;SDS011;62813;51.424;6.762;2024-02-04T13:50:55;6.97;;;5.80;;
9007;SDS011;62813;51.424;6.762;2024-02-04T13:53:22;6.63;;;5.87;;
9007;SDS011;62813;51.424;6.762;2024-02-04T13:55:49;6.30;;;5.57;;
9007;SDS011;62813;51.424;6.762;2024-02-04T13:58:16;7.43;;;6.63;;
9007;SDS011;62813;51.424;6.762;2024-02-04T14:00:45;7.40;;;6.20;;
9007;SDS011;62813;51.424;6.762;2024-02-04T14:03:12;8.07;;;7.00;;
9007;SDS011;62813;51.424;6.762;2024-02-04T14:05:41;6.87;;;6.17;;
9007;SDS011;62813;51.424;6.762;2024-02-04T14:08:08;8.03;;;7.17;;
9007;SDS011;62813;51.424;6.762;2024-02-04T14:10:35;8.63;;;7.50;;
9007;SDS011;62813;51.424;6.762;2024-02-04T14:13:02;8.33;;;7.23;;
9007;SDS011;62813;51.424;6.762;2024-02-04T14:15:33;21.90;;;16.33;;
9007;SDS011;62813;51.424;6.762;2024-02-04T14:18:00;18.03;;;15.37;;
9007;SDS011;62813;51.424;6.762;2024-02-04T14:20:27;8.10;;;6.77;;
9007;SDS011;62813;51.424;6.762;2024-02-04T14:22:54;7.87;;;6.63;;
9007;SDS011;62813;51.424;6.762;2024-02-04T14:25:21;10.97;;;7.27;;
9007;SDS011;62813;51.424;6.762;2024-02-04T14:27:47;7.37;;;6.57;;
9007;SDS011;62813;51.424;6.762;2024-02-04T14:30:14;7.50;;;6.33;;
9007;SDS011;62813;51.424;6.762;2024-02-04T14:32:41;8.57;;;6.77;;
9007;SDS011;62813;51.424;6.762;2024-02-04T14:35:08;12.20;;;7.03;;
9007;SDS011;62813;51.424;6.762;2024-02-04T14:37:36;12.03;;;6.67;;
9007;SDS011;62813;51.424;6.762;2024-02-04T14:40:06;12.07;;;6.67;;
9007;SDS011;62813;51.424;6.762;2024-02-04T14:42:33;9.00;;;6.97;;
9007;SDS011;62813;51.424;6.762;2024-02-04T14:45:01;13.83;;;7.40;;
9007;SDS011;62813;51.424;6.762;2024-02-04T14:47:28;8.80;;;6.47;;
9007;SDS011;62813;51.424;6.762;2024-02-04T14:49:55;10.67;;;7.00;;
9007;SDS011;62813;51.424;6.762;2024-02-04T14:52:22;11.57;;;6.83;;
9007;SDS011;62813;51.424;6.762;2024-02-04T14:54:49;10.17;;;6.80;;
9007;SDS011;62813;51.424;6.762;2024-02-04T14:57:15;9.23;;;6.70;;
9007;SDS011;62813;51.424;6.762;2024-02-04T14:59:43;10.87;;;6.50;;
9007;SDS011;62813;51.424;6.762;2024-02-04T15:02:11;9.97;;;6.70;;